sensor_id;sensor_type;location;lat;lon;timestamp;temperature;humidity
23267;DHT22;11802;53.160;8.214;2023-05-14T00:00:17;12.50;99.90
23267;DHT22;11802;53.160;8.214;2023-05-14T00:02:43;12.40;99.90
23267;DHT22;11802;53.160;8.214;2023-05-14T00:05:08;12.40;45.60
23267;DHT22;11802;53.160;8.214;2023-05-14T00:07:34;12.40;99.90
23267;DHT22;11802;53.160;8.214;2023-05-14T00:10:00;12.20;99.90
23267;DHT22;11802;53.160;8.214;2023-05-14T00:12:25;12.20;99.90
23267;DHT22;11802;53.160;8.214;2023-05-14T00:14:52;12.20;99.90
23267;DHT22;11802;53.160;8.214;2023-05-14T00:17:18;12.20;1.00
23267;DHT22;11802;53.160;8.214;2023-05-14T00:19:43;12.10;99.90
23267;DHT22;11802;53.160;8.214;2023-05-14T00:22:09;12.00;1.00
23267;DHT22;11802;53.160;8.214;2023-05-14T00:24:35;12.00;1.00
23267;DHT22;11802;53.160;8.214;2023-05-14T00:27:01;12.00;1.00
23267;DHT22;11802;53.160;8.214;2023-05-14T00:29:27;11.90;1.00
23267;DHT22;11802;53.160;8.214;2023-05-14T00:31:52;11.90;1.00
23267;DHT22;11802;53.160;8.214;2023-05-14T00:34:18;11.80;1.00
23267;DHT22;11802;53.160;8.214;2023-05-14T00:36:43;11.80;1.00
23267;DHT22;11802;53.160;8.214;2023-05-14T00:39:09;11.80;1.00
23267;DHT22;11802;53.160;8.214;2023-05-14T00:41:34;11.80;1.00
23267;DHT22;11802;53.160;8.214;2023-05-14T00:44:00;11.80;1.00
23267;DHT22;11802;53.160;8.214;2023-05-14T00:46:26;11.70;1.00
23267;DHT22;11802;53.160;8.214;2023-05-14T00:48:52;11.70;1.00
23267;DHT22;11802;53.160;8.214;2023-05-14T00:51:18;11.70;1.00
23267;DHT22;11802;53.160;8.214;2023-05-14T00:53:45;11.60;1.00
23267;DHT22;11802;53.160;8.214;2023-05-14T00:56:10;11.60;1.00
23267;DHT22;11802;53.160;8.214;2023-05-14T00:58:36;11.60;1.00
23267;DHT22;11802;53.160;8.214;2023-05-14T01:01:01;11.60;1.00
23267;DHT22;11802;53.160;8.214;2023-05-14T01:03:29;11.60;1.00
23267;DHT22;11802;53.160;8.214;2023-05-14T01:06:08;11.60;1.00
23267;DHT22;11802;53.160;8.214;2023-05-14T01:08:56;11.50;1.00
23267;DHT22;11802;53.160;8.214;2023-05-14T01:11:28;11.50;1.00
23267;DHT22;11802;53.160;8.214;2023-05-14T01:14:16;11.60;1.00
23267;DHT22;11802;53.160;8.214;2023-05-14T01:16:48;11.50;1.00
23267;DHT22;11802;53.160;8.214;2023-05-14T01:19:26;11.50;1.00
23267;DHT22;11802;53.160;8.214;2023-05-14T01:21:53;11.40;1.00
23267;DHT22;11802;53.160;8.214;2023-05-14T01:24:19;11.40;1.00
23267;DHT22;11802;53.160;8.214;2023-05-14T01:26:44;11.40;1.00
23267;DHT22;11802;53.160;8.214;2023-05-14T01:29:18;11.30;1.00
23267;DHT22;11802;53.160;8.214;2023-05-14T01:31:46;11.30;1.00
23267;DHT22;11802;53.160;8.214;2023-05-14T01:34:13;11.30;1.00
23267;DHT22;11802;53.160;8.214;2023-05-14T01:36:40;11.20;1.00
23267;DHT22;11802;53.160;8.214;2023-05-14T01:39:07;11.20;1.00
23267;DHT22;11802;53.160;8.214;2023-05-14T01:41:36;11.20;1.00
23267;DHT22;11802;53.160;8.214;2023-05-14T01:44:04;11.20;1.00
23267;DHT22;11802;53.160;8.214;2023-05-14T01:46:32;11.20;1.00
23267;DHT22;11802;53.160;8.214;2023-05-14T01:48:58;11.10;5.40
23267;DHT22;11802;53.160;8.214;2023-05-14T01:51:24;11.10;14.10
23267;DHT22;11802;53.160;8.214;2023-05-14T01:53:50;11.10;16.00
23267;DHT22;11802;53.160;8.214;2023-05-14T01:56:16;11.10;20.30
23267;DHT22;11802;53.160;8.214;2023-05-14T01:58:41;11.10;26.70
23267;DHT22;11802;53.160;8.214;2023-05-14T02:01:07;11.00;21.00
23267;DHT22;11802;53.160;8.214;2023-05-14T02:03:32;11.00;39.40
23267;DHT22;11802;53.160;8.214;2023-05-14T02:05:58;11.00;46.70
23267;DHT22;11802;53.160;8.214;2023-05-14T02:08:23;10.90;60.90
23267;DHT22;11802;53.160;8.214;2023-05-14T02:10:49;10.90;83.50
23267;DHT22;11802;53.160;8.214;2023-05-14T02:13:15;10.80;83.10
23267;DHT22;11802;53.160;8.214;2023-05-14T02:15:41;10.80;81.90
23267;DHT22;11802;53.160;8.214;2023-05-14T02:18:06;10.80;93.40
23267;DHT22;11802;53.160;8.214;2023-05-14T02:20:32;10.70;94.20
23267;DHT22;11802;53.160;8.214;2023-05-14T02:22:57;10.70;96.30
23267;DHT22;11802;53.160;8.214;2023-05-14T02:25:23;10.60;99.90
23267;DHT22;11802;53.160;8.214;2023-05-14T02:27:48;10.60;99.90
23267;DHT22;11802;53.160;8.214;2023-05-14T02:30:15;10.60;99.90
23267;DHT22;11802;53.160;8.214;2023-05-14T02:32:40;10.60;99.90
23267;DHT22;11802;53.160;8.214;2023-05-14T02:35:06;10.60;99.90
23267;DHT22;11802;53.160;8.214;2023-05-14T02:37:31;10.50;99.90
23267;DHT22;11802;53.160;8.214;2023-05-14T02:40:01;10.50;99.90
23267;DHT22;11802;53.160;8.214;2023-05-14T02:42:26;10.50;99.90
23267;DHT22;11802;53.160;8.214;2023-05-14T02:44:52;10.50;99.90
23267;DHT22;11802;53.160;8.214;2023-05-14T02:47:17;10.50;99.90
23267;DHT22;11802;53.160;8.214;2023-05-14T02:49:43;10.40;99.90
23267;DHT22;11802;53.160;8.214;2023-05-14T02:52:09;10.40;99.90
23267;DHT22;11802;53.160;8.214;2023-05-14T02:54:34;10.40;99.90
23267;DHT22;11802;53.160;8.214;2023-05-14T02:57:00;10.40;99.90
23267;DHT22;11802;53.160;8.214;2023-05-14T02:59:25;10.40;99.90
23267;DHT22;11802;53.160;8.214;2023-05-14T03:01:51;10.40;99.90
23267;DHT22;11802;53.160;8.214;2023-05-14T03:04:17;10.40;99.90
23267;DHT22;11802;53.160;8.214;2023-05-14T03:06:42;10.40;99.90
23267;DHT22;11802;53.160;8.214;2023-05-14T03:09:08;10.40;99.90
23267;DHT22;11802;53.160;8.214;2023-05-14T03:11:34;10.40;99.90
23267;DHT22;11802;53.160;8.214;2023-05-14T03:13:59;10.40;99.90
23267;DHT22;11802;53.160;8.214;2023-05-14T03:16:25;10.40;99.90
23267;DHT22;11802;53.160;8.214;2023-05-14T03:18:51;10.40;99.90
23267;DHT22;11802;53.160;8.214;2023-05-14T03:21:16;10.40;99.90
23267;DHT22;11802;53.160;8.214;2023-05-14T03:23:42;10.40;99.90
23267;DHT22;11802;53.160;8.214;2023-05-14T03:26:08;10.40;99.90
23267;DHT22;11802;53.160;8.214;2023-05-14T03:28:33;10.40;99.90
23267;DHT22;11802;53.160;8.214;2023-05-14T03:30:59;10.40;99.90
23267;DHT22;11802;53.160;8.214;2023-05-14T03:33:25;10.50;99.90
23267;DHT22;11802;53.160;8.214;2023-05-14T03:35:50;10.50;99.90
23267;DHT22;11802;53.160;8.214;2023-05-14T03:38:16;10.50;99.90
23267;DHT22;11802;53.160;8.214;2023-05-14T03:40:43;10.60;99.90
23267;DHT22;11802;53.160;8.214;2023-05-14T03:43:08;10.50;99.90
23267;DHT22;11802;53.160;8.214;2023-05-14T03:45:34;10.60;99.90
23267;DHT22;11802;53.160;8.214;2023-05-14T03:47:59;10.60;99.90
23267;DHT22;11802;53.160;8.214;2023-05-14T03:50:25;10.70;99.90
23267;DHT22;11802;53.160;8.214;2023-05-14T03:52:51;10.70;99.90
23267;DHT22;11802;53.160;8.214;2023-05-14T03:55:18;10.70;99.90
23267;DHT22;11802;53.160;8.214;2023-05-14T03:57:44;10.80;99.90
23267;DHT22;11802;53.160;8.214;2023-05-14T04:00:10;10.80;99.90
23267;DHT22;11802;53.160;8.214;2023-05-14T04:02:36;10.80;99.90
23267;DHT22;11802;53.160;8.214;2023-05-14T04:05:01;10.80;99.90
23267;DHT22;11802;53.160;8.214;2023-05-14T04:07:27;10.90;99.90
23267;DHT22;11802;53.160;8.214;2023-05-14T04:09:52;11.00;99.90
23267;DHT22;11802;53.160;8.214;2023-05-14T04:12:18;11.10;99.90
23267;DHT22;11802;53.160;8.214;2023-05-14T04:14:43;11.20;31.10
23267;DHT22;11802;53.160;8.214;2023-05-14T04:17:09;11.20;22.20
23267;DHT22;11802;53.160;8.214;2023-05-14T04:19:34;11.20;20.60
23267;DHT22;11802;53.160;8.214;2023-05-14T04:22:00;11.30;2.00
23267;DHT22;11802;53.160;8.214;2023-05-14T04:24:25;11.40;1.00
23267;DHT22;11802;53.160;8.214;2023-05-14T04:26:51;11.40;1.00
23267;DHT22;11802;53.160;8.214;2023-05-14T04:29:16;11.50;1.00
23267;DHT22;11802;53.160;8.214;2023-05-14T04:31:43;11.50;1.00
23267;DHT22;11802;53.160;8.214;2023-05-14T04:34:08;11.50;1.00
23267;DHT22;11802;53.160;8.214;2023-05-14T04:36:34;11.50;1.00
23267;DHT22;11802;53.160;8.214;2023-05-14T04:39:00;11.60;1.00
23267;DHT22;11802;53.160;8.214;2023-05-14T04:41:25;11.60;1.00
23267;DHT22;11802;53.160;8.214;2023-05-14T04:43:54;11.70;1.00
23267;DHT22;11802;53.160;8.214;2023-05-14T04:46:20;11.70;1.00
23267;DHT22;11802;53.160;8.214;2023-05-14T04:48:46;11.80;1.00
23267;DHT22;11802;53.160;8.214;2023-05-14T04:51:13;11.90;1.00
23267;DHT22;11802;53.160;8.214;2023-05-14T04:53:38;11.90;1.00
23267;DHT22;11802;53.160;8.214;2023-05-14T04:56:04;12.00;1.00
23267;DHT22;11802;53.160;8.214;2023-05-14T04:58:29;12.00;1.00
23267;DHT22;11802;53.160;8.214;2023-05-14T05:00:58;12.00;1.00
23267;DHT22;11802;53.160;8.214;2023-05-14T05:03:23;12.10;1.00
23267;DHT22;11802;53.160;8.214;2023-05-14T05:05:49;12.00;1.00
23267;DHT22;11802;53.160;8.214;2023-05-14T05:08:15;12.00;1.00
23267;DHT22;11802;53.160;8.214;2023-05-14T05:10:40;12.10;1.00
23267;DHT22;11802;53.160;8.214;2023-05-14T05:13:06;12.20;1.00
23267;DHT22;11802;53.160;8.214;2023-05-14T05:15:31;12.20;1.00
23267;DHT22;11802;53.160;8.214;2023-05-14T05:17:57;12.30;1.00
23267;DHT22;11802;53.160;8.214;2023-05-14T05:20:22;12.30;1.00
23267;DHT22;11802;53.160;8.214;2023-05-14T05:22:49;12.40;1.00
23267;DHT22;11802;53.160;8.214;2023-05-14T05:25:15;12.50;1.00
23267;DHT22;11802;53.160;8.214;2023-05-14T05:27:40;12.50;1.00
23267;DHT22;11802;53.160;8.214;2023-05-14T05:30:06;12.60;1.00
23267;DHT22;11802;53.160;8.214;2023-05-14T05:32:32;12.50;1.00
23267;DHT22;11802;53.160;8.214;2023-05-14T05:34:58;12.50;1.00
23267;DHT22;11802;53.160;8.214;2023-05-14T05:37:24;12.70;1.00
23267;DHT22;11802;53.160;8.214;2023-05-14T05:39:49;12.70;1.00
23267;DHT22;11802;53.160;8.214;2023-05-14T05:42:15;12.90;99.90
23267;DHT22;11802;53.160;8.214;2023-05-14T05:44:40;12.80;99.90
23267;DHT22;11802;53.160;8.214;2023-05-14T05:47:06;12.80;99.90
23267;DHT22;11802;53.160;8.214;2023-05-14T05:49:31;12.80;99.90
23267;DHT22;11802;53.160;8.214;2023-05-14T05:51:57;13.00;99.90
23267;DHT22;11802;53.160;8.214;2023-05-14T05:54:23;13.10;99.90
23267;DHT22;11802;53.160;8.214;2023-05-14T05:56:51;13.40;1.00
23267;DHT22;11802;53.160;8.214;2023-05-14T05:59:17;13.60;1.00
23267;DHT22;11802;53.160;8.214;2023-05-14T06:01:42;13.80;1.00
23267;DHT22;11802;53.160;8.214;2023-05-14T06:04:08;14.10;99.90
23267;DHT22;11802;53.160;8.214;2023-05-14T06:06:34;14.10;1.00
23267;DHT22;11802;53.160;8.214;2023-05-14T06:09:00;14.10;1.00
23267;DHT22;11802;53.160;8.214;2023-05-14T06:11:26;14.20;99.90
23267;DHT22;11802;53.160;8.214;2023-05-14T06:13:52;14.30;1.00
23267;DHT22;11802;53.160;8.214;2023-05-14T06:16:17;14.50;1.00
23267;DHT22;11802;53.160;8.214;2023-05-14T06:18:43;14.50;1.00
23267;DHT22;11802;53.160;8.214;2023-05-14T06:21:09;14.50;99.90
23267;DHT22;11802;53.160;8.214;2023-05-14T06:23:34;14.70;1.00
23267;DHT22;11802;53.160;8.214;2023-05-14T06:26:00;14.90;1.00
23267;DHT22;11802;53.160;8.214;2023-05-14T06:28:25;15.10;1.00
23267;DHT22;11802;53.160;8.214;2023-05-14T06:30:51;15.30;99.90
23267;DHT22;11802;53.160;8.214;2023-05-14T06:33:18;15.60;99.90
23267;DHT22;11802;53.160;8.214;2023-05-14T06:35:45;15.80;1.00
23267;DHT22;11802;53.160;8.214;2023-05-14T06:38:11;16.00;1.00
23267;DHT22;11802;53.160;8.214;2023-05-14T06:40:36;16.40;1.00
23267;DHT22;11802;53.160;8.214;2023-05-14T06:43:02;16.60;1.00
23267;DHT22;11802;53.160;8.214;2023-05-14T06:45:29;16.80;1.00
23267;DHT22;11802;53.160;8.214;2023-05-14T06:47:54;17.20;99.90
23267;DHT22;11802;53.160;8.214;2023-05-14T06:50:20;17.60;1.00
23267;DHT22;11802;53.160;8.214;2023-05-14T06:52:45;17.60;99.90
23267;DHT22;11802;53.160;8.214;2023-05-14T06:55:11;17.50;99.90
23267;DHT22;11802;53.160;8.214;2023-05-14T06:57:37;17.50;99.90
23267;DHT22;11802;53.160;8.214;2023-05-14T07:00:03;17.60;1.00
23267;DHT22;11802;53.160;8.214;2023-05-14T07:02:29;17.50;1.00
23267;DHT22;11802;53.160;8.214;2023-05-14T07:04:54;18.00;99.90
23267;DHT22;11802;53.160;8.214;2023-05-14T07:07:20;18.80;99.90
23267;DHT22;11802;53.160;8.214;2023-05-14T07:09:46;19.00;1.00
23267;DHT22;11802;53.160;8.214;2023-05-14T07:12:11;19.00;1.00
23267;DHT22;11802;53.160;8.214;2023-05-14T07:14:37;19.00;1.00
23267;DHT22;11802;53.160;8.214;2023-05-14T07:17:03;19.50;1.00
23267;DHT22;11802;53.160;8.214;2023-05-14T07:19:28;20.30;99.90
23267;DHT22;11802;53.160;8.214;2023-05-14T07:21:55;20.60;1.00
23267;DHT22;11802;53.160;8.214;2023-05-14T07:24:21;21.00;1.00
23267;DHT22;11802;53.160;8.214;2023-05-14T07:26:46;22.40;99.90
23267;DHT22;11802;53.160;8.214;2023-05-14T07:29:12;23.30;1.00
23267;DHT22;11802;53.160;8.214;2023-05-14T07:31:37;24.00;1.00
23267;DHT22;11802;53.160;8.214;2023-05-14T07:34:03;24.30;1.00
23267;DHT22;11802;53.160;8.214;2023-05-14T07:36:28;24.40;1.00
23267;DHT22;11802;53.160;8.214;2023-05-14T07:38:54;24.10;1.00
23267;DHT22;11802;53.160;8.214;2023-05-14T07:41:19;24.00;1.00
23267;DHT22;11802;53.160;8.214;2023-05-14T07:43:45;24.20;1.00
23267;DHT22;11802;53.160;8.214;2023-05-14T07:46:11;24.40;1.00
23267;DHT22;11802;53.160;8.214;2023-05-14T07:48:36;24.00;1.00
23267;DHT22;11802;53.160;8.214;2023-05-14T07:51:02;24.40;1.00
23267;DHT22;11802;53.160;8.214;2023-05-14T07:53:28;24.60;1.00
23267;DHT22;11802;53.160;8.214;2023-05-14T07:55:53;24.60;1.00
23267;DHT22;11802;53.160;8.214;2023-05-14T07:58:19;24.80;1.00
23267;DHT22;11802;53.160;8.214;2023-05-14T08:00:45;24.80;1.00
23267;DHT22;11802;53.160;8.214;2023-05-14T08:03:10;24.00;1.00
23267;DHT22;11802;53.160;8.214;2023-05-14T08:05:35;24.10;1.00
23267;DHT22;11802;53.160;8.214;2023-05-14T08:08:01;24.10;1.00
23267;DHT22;11802;53.160;8.214;2023-05-14T08:10:27;24.60;1.00
23267;DHT22;11802;53.160;8.214;2023-05-14T08:12:53;24.90;1.00
23267;DHT22;11802;53.160;8.214;2023-05-14T08:15:18;25.20;99.90
23267;DHT22;11802;53.160;8.214;2023-05-14T08:17:44;25.40;99.90
23267;DHT22;11802;53.160;8.214;2023-05-14T08:20:11;25.30;99.90
23267;DHT22;11802;53.160;8.214;2023-05-14T08:22:36;25.40;99.90
23267;DHT22;11802;53.160;8.214;2023-05-14T08:25:02;25.40;99.90
23267;DHT22;11802;53.160;8.214;2023-05-14T08:27:28;26.00;99.90
23267;DHT22;11802;53.160;8.214;2023-05-14T08:29:53;26.90;99.90
23267;DHT22;11802;53.160;8.214;2023-05-14T08:32:19;27.50;99.90
23267;DHT22;11802;53.160;8.214;2023-05-14T08:34:44;27.60;99.90
23267;DHT22;11802;53.160;8.214;2023-05-14T08:37:10;27.50;99.90
23267;DHT22;11802;53.160;8.214;2023-05-14T08:39:36;27.10;99.90
23267;DHT22;11802;53.160;8.214;2023-05-14T08:42:05;26.90;99.90
23267;DHT22;11802;53.160;8.214;2023-05-14T08:44:38;26.50;99.90
23267;DHT22;11802;53.160;8.214;2023-05-14T08:47:08;26.80;99.90
23267;DHT22;11802;53.160;8.214;2023-05-14T08:49:39;27.60;99.90
23267;DHT22;11802;53.160;8.214;2023-05-14T08:52:05;27.70;99.90
23267;DHT22;11802;53.160;8.214;2023-05-14T08:54:31;27.70;99.90
23267;DHT22;11802;53.160;8.214;2023-05-14T08:56:58;27.50;99.90
23267;DHT22;11802;53.160;8.214;2023-05-14T08:59:24;27.90;99.90
23267;DHT22;11802;53.160;8.214;2023-05-14T09:01:52;28.30;99.90
23267;DHT22;11802;53.160;8.214;2023-05-14T09:04:20;28.90;99.90
23267;DHT22;11802;53.160;8.214;2023-05-14T09:06:48;28.70;99.90
23267;DHT22;11802;53.160;8.214;2023-05-14T09:09:14;29.00;99.90
23267;DHT22;11802;53.160;8.214;2023-05-14T09:11:49;29.10;99.90
23267;DHT22;11802;53.160;8.214;2023-05-14T09:14:15;28.00;99.90
23267;DHT22;11802;53.160;8.214;2023-05-14T09:16:44;28.10;99.90
23267;DHT22;11802;53.160;8.214;2023-05-14T09:19:11;27.60;99.90
23267;DHT22;11802;53.160;8.214;2023-05-14T09:21:37;27.40;99.90
23267;DHT22;11802;53.160;8.214;2023-05-14T09:24:03;27.10;99.90
23267;DHT22;11802;53.160;8.214;2023-05-14T09:26:31;27.50;99.90
23267;DHT22;11802;53.160;8.214;2023-05-14T09:28:57;27.30;99.90
23267;DHT22;11802;53.160;8.214;2023-05-14T09:31:30;26.80;99.90
23267;DHT22;11802;53.160;8.214;2023-05-14T09:33:56;26.90;99.90
23267;DHT22;11802;53.160;8.214;2023-05-14T09:36:22;26.80;99.90
23267;DHT22;11802;53.160;8.214;2023-05-14T09:38:49;26.30;99.90
23267;DHT22;11802;53.160;8.214;2023-05-14T09:41:15;26.30;99.90
23267;DHT22;11802;53.160;8.214;2023-05-14T09:43:41;26.30;99.90
23267;DHT22;11802;53.160;8.214;2023-05-14T09:46:06;26.00;99.90
23267;DHT22;11802;53.160;8.214;2023-05-14T09:48:32;26.10;99.90
23267;DHT22;11802;53.160;8.214;2023-05-14T09:50:57;25.90;99.90
23267;DHT22;11802;53.160;8.214;2023-05-14T09:53:23;25.60;99.90
23267;DHT22;11802;53.160;8.214;2023-05-14T09:55:49;26.40;99.90
23267;DHT22;11802;53.160;8.214;2023-05-14T09:58:15;27.60;99.90
23267;DHT22;11802;53.160;8.214;2023-05-14T10:00:45;27.30;99.90
23267;DHT22;11802;53.160;8.214;2023-05-14T10:03:13;27.80;99.90
23267;DHT22;11802;53.160;8.214;2023-05-14T10:05:41;27.80;99.90
23267;DHT22;11802;53.160;8.214;2023-05-14T10:10:34;28.00;99.90
23267;DHT22;11802;53.160;8.214;2023-05-14T10:13:04;27.80;99.90
23267;DHT22;11802;53.160;8.214;2023-05-14T10:15:51;27.20;99.90
23267;DHT22;11802;53.160;8.214;2023-05-14T10:18:22;27.50;99.90
23267;DHT22;11802;53.160;8.214;2023-05-14T10:20:59;27.20;99.90
23267;DHT22;11802;53.160;8.214;2023-05-14T10:23:27;26.50;99.90
23267;DHT22;11802;53.160;8.214;2023-05-14T10:25:53;26.40;99.90
23267;DHT22;11802;53.160;8.214;2023-05-14T10:28:18;27.10;99.90
23267;DHT22;11802;53.160;8.214;2023-05-14T10:30:45;27.30;99.90
23267;DHT22;11802;53.160;8.214;2023-05-14T10:33:13;27.50;99.90
23267;DHT22;11802;53.160;8.214;2023-05-14T10:36:06;27.30;99.90
23267;DHT22;11802;53.160;8.214;2023-05-14T10:38:36;26.80;99.90
23267;DHT22;11802;53.160;8.214;2023-05-14T10:41:10;26.90;99.90
23267;DHT22;11802;53.160;8.214;2023-05-14T10:43:37;26.70;99.90
23267;DHT22;11802;53.160;8.214;2023-05-14T10:46:04;26.50;99.90
23267;DHT22;11802;53.160;8.214;2023-05-14T10:48:30;26.10;99.90
23267;DHT22;11802;53.160;8.214;2023-05-14T10:50:56;26.30;99.90
23267;DHT22;11802;53.160;8.214;2023-05-14T10:53:36;25.40;99.90
23267;DHT22;11802;53.160;8.214;2023-05-14T10:56:07;25.20;99.90
23267;DHT22;11802;53.160;8.214;2023-05-14T10:58:36;25.20;99.90
23267;DHT22;11802;53.160;8.214;2023-05-14T11:01:02;25.40;99.90
23267;DHT22;11802;53.160;8.214;2023-05-14T11:03:31;25.40;99.90
23267;DHT22;11802;53.160;8.214;2023-05-14T11:05:58;25.00;99.90
23267;DHT22;11802;53.160;8.214;2023-05-14T11:08:25;25.60;99.90
23267;DHT22;11802;53.160;8.214;2023-05-14T11:10:53;25.80;99.90
23267;DHT22;11802;53.160;8.214;2023-05-14T11:13:19;25.70;99.90
23267;DHT22;11802;53.160;8.214;2023-05-14T11:15:45;25.50;99.90
23267;DHT22;11802;53.160;8.214;2023-05-14T11:18:12;25.30;99.90
23267;DHT22;11802;53.160;8.214;2023-05-14T11:20:38;25.70;99.90
23267;DHT22;11802;53.160;8.214;2023-05-14T11:23:04;25.80;99.90
23267;DHT22;11802;53.160;8.214;2023-05-14T11:25:30;26.00;99.90
23267;DHT22;11802;53.160;8.214;2023-05-14T11:27:55;26.20;99.90
23267;DHT22;11802;53.160;8.214;2023-05-14T11:30:23;25.80;99.90
23267;DHT22;11802;53.160;8.214;2023-05-14T11:32:49;26.00;99.90
23267;DHT22;11802;53.160;8.214;2023-05-14T11:35:16;26.60;99.90
23267;DHT22;11802;53.160;8.214;2023-05-14T11:37:42;26.60;99.90
23267;DHT22;11802;53.160;8.214;2023-05-14T11:40:14;26.60;99.90
23267;DHT22;11802;53.160;8.214;2023-05-14T11:42:43;26.90;99.90
23267;DHT22;11802;53.160;8.214;2023-05-14T11:45:12;26.30;99.90
23267;DHT22;11802;53.160;8.214;2023-05-14T11:47:39;26.40;99.90
23267;DHT22;11802;53.160;8.214;2023-05-14T11:50:06;25.90;99.90
23267;DHT22;11802;53.160;8.214;2023-05-14T11:52:36;25.90;99.90
23267;DHT22;11802;53.160;8.214;2023-05-14T11:55:03;26.20;99.90
23267;DHT22;11802;53.160;8.214;2023-05-14T11:57:30;25.90;99.90
23267;DHT22;11802;53.160;8.214;2023-05-14T11:59:55;26.00;99.90
23267;DHT22;11802;53.160;8.214;2023-05-14T12:02:22;25.60;99.90
23267;DHT22;11802;53.160;8.214;2023-05-14T12:04:50;25.50;99.90
23267;DHT22;11802;53.160;8.214;2023-05-14T12:07:17;25.60;99.90
23267;DHT22;11802;53.160;8.214;2023-05-14T12:09:44;26.20;99.90
23267;DHT22;11802;53.160;8.214;2023-05-14T12:12:18;26.30;99.90
23267;DHT22;11802;53.160;8.214;2023-05-14T12:14:44;26.80;99.90
23267;DHT22;11802;53.160;8.214;2023-05-14T12:17:19;27.00;99.90
23267;DHT22;11802;53.160;8.214;2023-05-14T12:19:51;27.20;99.90
23267;DHT22;11802;53.160;8.214;2023-05-14T12:22:19;26.90;99.90
23267;DHT22;11802;53.160;8.214;2023-05-14T12:24:55;26.50;99.90
23267;DHT22;11802;53.160;8.214;2023-05-14T12:27:22;26.00;99.90
23267;DHT22;11802;53.160;8.214;2023-05-14T12:29:49;26.10;99.90
23267;DHT22;11802;53.160;8.214;2023-05-14T12:32:17;25.90;99.90
23267;DHT22;11802;53.160;8.214;2023-05-14T12:34:44;25.90;99.90
23267;DHT22;11802;53.160;8.214;2023-05-14T12:37:09;25.50;99.90
23267;DHT22;11802;53.160;8.214;2023-05-14T12:39:35;25.30;99.90
23267;DHT22;11802;53.160;8.214;2023-05-14T12:42:01;24.80;99.90
23267;DHT22;11802;53.160;8.214;2023-05-14T12:44:26;24.50;99.90
23267;DHT22;11802;53.160;8.214;2023-05-14T12:46:52;24.50;99.90
23267;DHT22;11802;53.160;8.214;2023-05-14T12:49:18;24.50;99.90
23267;DHT22;11802;53.160;8.214;2023-05-14T12:51:44;24.50;99.90
23267;DHT22;11802;53.160;8.214;2023-05-14T12:54:11;24.80;99.90
23267;DHT22;11802;53.160;8.214;2023-05-14T12:56:37;25.00;99.90
23267;DHT22;11802;53.160;8.214;2023-05-14T12:59:03;24.80;99.90
23267;DHT22;11802;53.160;8.214;2023-05-14T13:01:29;24.90;99.90
23267;DHT22;11802;53.160;8.214;2023-05-14T13:03:54;25.10;99.90
23267;DHT22;11802;53.160;8.214;2023-05-14T13:06:20;25.00;99.90
23267;DHT22;11802;53.160;8.214;2023-05-14T13:08:46;24.60;99.90
23267;DHT22;11802;53.160;8.214;2023-05-14T13:11:11;24.90;99.90
23267;DHT22;11802;53.160;8.214;2023-05-14T13:13:37;25.20;99.90
23267;DHT22;11802;53.160;8.214;2023-05-14T13:16:03;25.30;99.90
23267;DHT22;11802;53.160;8.214;2023-05-14T13:18:29;25.30;99.90
23267;DHT22;11802;53.160;8.214;2023-05-14T13:20:54;25.10;99.90
23267;DHT22;11802;53.160;8.214;2023-05-14T13:23:20;24.30;99.90
23267;DHT22;11802;53.160;8.214;2023-05-14T13:25:45;24.10;99.90
23267;DHT22;11802;53.160;8.214;2023-05-14T13:28:11;24.30;99.90
23267;DHT22;11802;53.160;8.214;2023-05-14T13:30:36;24.20;99.90
23267;DHT22;11802;53.160;8.214;2023-05-14T13:33:02;24.00;99.90
23267;DHT22;11802;53.160;8.214;2023-05-14T13:35:28;24.00;99.90
23267;DHT22;11802;53.160;8.214;2023-05-14T13:37:53;24.10;99.90
23267;DHT22;11802;53.160;8.214;2023-05-14T13:40:19;24.40;99.90
23267;DHT22;11802;53.160;8.214;2023-05-14T13:42:44;24.50;99.90
23267;DHT22;11802;53.160;8.214;2023-05-14T13:45:11;24.50;99.90
23267;DHT22;11802;53.160;8.214;2023-05-14T13:47:37;24.80;99.90
23267;DHT22;11802;53.160;8.214;2023-05-14T13:50:03;25.20;99.90
23267;DHT22;11802;53.160;8.214;2023-05-14T13:52:28;25.50;99.90
23267;DHT22;11802;53.160;8.214;2023-05-14T13:54:54;25.30;99.90
23267;DHT22;11802;53.160;8.214;2023-05-14T13:57:20;25.10;99.90
23267;DHT22;11802;53.160;8.214;2023-05-14T13:59:47;25.20;99.90
23267;DHT22;11802;53.160;8.214;2023-05-14T14:02:13;24.50;99.90
23267;DHT22;11802;53.160;8.214;2023-05-14T14:04:39;24.40;99.90
23267;DHT22;11802;53.160;8.214;2023-05-14T14:07:05;24.30;99.90
23267;DHT22;11802;53.160;8.214;2023-05-14T14:09:30;24.30;99.90
23267;DHT22;11802;53.160;8.214;2023-05-14T14:12:00;24.00;99.90
23267;DHT22;11802;53.160;8.214;2023-05-14T14:14:26;23.70;99.90
23267;DHT22;11802;53.160;8.214;2023-05-14T14:16:51;23.80;99.90
23267;DHT22;11802;53.160;8.214;2023-05-14T14:19:17;24.10;99.90
23267;DHT22;11802;53.160;8.214;2023-05-14T14:21:43;24.00;99.90
23267;DHT22;11802;53.160;8.214;2023-05-14T14:24:08;24.20;99.90
23267;DHT22;11802;53.160;8.214;2023-05-14T14:26:34;24.10;99.90
23267;DHT22;11802;53.160;8.214;2023-05-14T14:28:59;24.00;99.90
23267;DHT22;11802;53.160;8.214;2023-05-14T14:31:25;23.80;99.90
23267;DHT22;11802;53.160;8.214;2023-05-14T14:33:50;23.60;99.90
23267;DHT22;11802;53.160;8.214;2023-05-14T14:36:16;23.50;99.90
23267;DHT22;11802;53.160;8.214;2023-05-14T14:38:41;23.40;99.90
23267;DHT22;11802;53.160;8.214;2023-05-14T14:41:08;23.40;99.90
23267;DHT22;11802;53.160;8.214;2023-05-14T14:43:35;23.20;99.90
23267;DHT22;11802;53.160;8.214;2023-05-14T14:46:00;23.40;99.90
23267;DHT22;11802;53.160;8.214;2023-05-14T14:48:31;23.50;99.90
23267;DHT22;11802;53.160;8.214;2023-05-14T14:50:59;23.30;99.90
23267;DHT22;11802;53.160;8.214;2023-05-14T14:53:25;23.20;99.90
23267;DHT22;11802;53.160;8.214;2023-05-14T14:55:51;23.10;99.90
23267;DHT22;11802;53.160;8.214;2023-05-14T14:58:18;22.90;99.90
23267;DHT22;11802;53.160;8.214;2023-05-14T15:00:44;22.90;99.90
23267;DHT22;11802;53.160;8.214;2023-05-14T15:03:10;22.90;99.90
23267;DHT22;11802;53.160;8.214;2023-05-14T15:05:35;22.80;99.90
23267;DHT22;11802;53.160;8.214;2023-05-14T15:08:01;22.60;99.90
23267;DHT22;11802;53.160;8.214;2023-05-14T15:10:27;22.60;99.90
23267;DHT22;11802;53.160;8.214;2023-05-14T15:12:57;22.80;99.90
23267;DHT22;11802;53.160;8.214;2023-05-14T15:15:24;22.90;99.90
23267;DHT22;11802;53.160;8.214;2023-05-14T15:17:50;23.10;99.90
23267;DHT22;11802;53.160;8.214;2023-05-14T15:20:16;23.10;99.90
23267;DHT22;11802;53.160;8.214;2023-05-14T15:22:41;23.20;99.90
23267;DHT22;11802;53.160;8.214;2023-05-14T15:25:07;23.20;99.90
23267;DHT22;11802;53.160;8.214;2023-05-14T15:27:33;23.20;99.90
23267;DHT22;11802;53.160;8.214;2023-05-14T15:29:59;23.20;99.90
23267;DHT22;11802;53.160;8.214;2023-05-14T15:32:25;23.30;99.90